Time;durP1;ratioP1;P1;durP2;ratioP2;P2;SDS_P1;SDS_P2;PMS_P1;PMS_P2;Temp;Humidity;BMP_temperature;BMP_pressure;BME280_temperature;BME280_humidity;BME280_pressure;Samples;Min_cycle;Max_cycle;Signal;HPM_P1;HPM_P2
2023/03/18 00:00:46;;;;;;;9.10;3.25;;;13.90;97.10;;;;;;4957743;28;20055;-88
2023/03/18 00:03:12;;;;;;;5.80;2.70;;;13.90;97.30;;;;;;4975648;28;20090;-87
2023/03/18 00:05:39;;;;;;;8.52;3.05;;;13.90;97.50;;;;;;4965992;28;20025;-88
2023/03/18 00:08:05;;;;;;;8.98;3.15;;;13.90;97.90;;;;;;4957049;28;20089;-87
2023/03/18 00:10:33;;;;;;;4.75;2.78;;;13.90;98.50;;;;;;4960544;28;20022;-81
2023/03/18 00:13:00;;;;;;;6.30;2.63;;;13.80;98.90;;;;;;4971864;28;20057;-82
2023/03/18 00:15:27;;;;;;;7.40;3.13;;;13.80;99.40;;;;;;4961590;28;20269;-81
2023/03/18 00:17:53;;;;;;;14.70;2.97;;;13.70;99.80;;;;;;4976160;28;20106;-82
2023/03/18 00:20:27;;;;;;;5.32;2.70;;;13.70;99.90;;;;;;4972044;28;20118;-81
2023/03/18 00:22:56;;;;;;;11.25;3.63;;;13.70;99.90;;;;;;4974555;28;20026;-81
2023/03/18 00:25:22;;;;;;;8.07;3.20;;;13.60;99.90;;;;;;4964592;28;20081;-82
2023/03/18 00:27:50;;;;;;;7.40;3.28;;;13.50;99.90;;;;;;4967636;28;20196;-86
2023/03/18 00:30:15;;;;;;;5.13;2.58;;;13.40;99.90;;;;;;4961292;28;20022;-86
2023/03/18 00:32:43;;;;;;;9.55;3.53;;;13.40;99.90;;;;;;4960030;28;20027;-87
2023/03/18 00:35:09;;;;;;;7.07;3.22;;;13.30;99.90;;;;;;4967678;28;20081;-87
2023/03/18 00:37:35;;;;;;;11.25;3.95;;;13.20;99.90;;;;;;4959612;28;20037;-88
2023/03/18 00:40:16;;;;;;;14.55;3.85;;;13.20;99.90;;;;;;4962255;28;20705;-88
2023/03/18 00:42:46;;;;;;;7.95;3.22;;;13.10;99.90;;;;;;4954496;28;20581;-86
2023/03/18 00:45:14;;;;;;;11.95;3.92;;;13.00;99.90;;;;;;4965418;28;20038;-86
2023/03/18 00:47:47;;;;;;;10.48;3.50;;;12.90;99.90;;;;;;4969187;28;20031;-88
2023/03/18 00:50:16;;;;;;;10.30;3.53;;;12.90;99.90;;;;;;4972137;28;20031;-87
2023/03/18 00:52:44;;;;;;;8.07;2.67;;;12.90;99.90;;;;;;4984982;28;20041;-88
2023/03/18 00:55:09;;;;;;;11.85;3.50;;;12.80;99.90;;;;;;4974811;28;20511;-86
2023/03/18 00:57:35;;;;;;;7.35;3.35;;;12.80;99.90;;;;;;4984922;28;20026;-88
2023/03/18 01:00:05;;;;;;;6.82;3.08;;;12.70;99.90;;;;;;4986313;28;20050;-84
2023/03/18 01:02:31;;;;;;;8.52;3.40;;;12.70;99.90;;;;;;4996385;28;20030;-86
2023/03/18 01:04:57;;;;;;;13.15;3.70;;;12.70;99.90;;;;;;4986375;28;20052;-87
2023/03/18 01:07:23;;;;;;;6.20;3.38;;;12.60;99.90;;;;;;4985775;28;20023;-87
2023/03/18 01:09:49;;;;;;;7.30;3.53;;;12.60;99.90;;;;;;4978981;28;20126;-88
2023/03/18 01:12:15;;;;;;;7.22;3.35;;;12.60;99.90;;;;;;4968822;28;20113;-88
2023/03/18 01:14:42;;;;;;;10.15;4.18;;;12.60;99.90;;;;;;4960965;28;20030;-88
2023/03/18 01:17:08;;;;;;;7.10;3.45;;;12.50;99.90;;;;;;4962346;28;20029;-88
2023/03/18 01:19:35;;;;;;;6.85;3.17;;;12.50;99.90;;;;;;4964334;28;20045;-87
2023/03/18 01:22:01;;;;;;;7.30;3.28;;;12.50;99.90;;;;;;4978103;28;20050;-89
2023/03/18 01:24:27;;;;;;;7.72;3.10;;;12.30;99.90;;;;;;4961567;28;20147;-88
2023/03/18 01:26:53;;;;;;;7.22;3.22;;;12.30;99.90;;;;;;4970218;28;20023;-87
2023/03/18 01:29:21;;;;;;;7.30;3.65;;;12.30;99.90;;;;;;4977786;28;20030;-86
2023/03/18 01:31:48;;;;;;;10.18;3.67;;;12.30;99.90;;;;;;4964391;28;20093;-88
2023/03/18 01:34:15;;;;;;;6.82;3.40;;;12.30;99.90;;;;;;4969303;28;20023;-87
2023/03/18 01:36:43;;;;;;;15.55;4.38;;;12.30;99.90;;;;;;4979097;28;20081;-87
2023/03/18 01:39:09;;;;;;;8.88;3.50;;;12.30;99.90;;;;;;4968104;28;20042;-88
2023/03/18 01:41:35;;;;;;;9.40;3.83;;;12.20;99.90;;;;;;4961825;28;20023;-89
2023/03/18 01:44:03;;;;;;;11.40;3.33;;;12.30;99.90;;;;;;4957358;28;20037;-89
2023/03/18 01:46:31;;;;;;;8.23;3.25;;;12.30;99.90;;;;;;4964354;28;20122;-86
2023/03/18 01:48:57;;;;;;;6.82;3.30;;;12.40;99.90;;;;;;4954582;28;20019;-88
2023/03/18 01:51:25;;;;;;;9.13;3.80;;;12.50;99.90;;;;;;4964797;28;20030;-86
2023/03/18 01:53:53;;;;;;;6.60;3.17;;;12.40;99.90;;;;;;4979970;28;20037;-88
2023/03/18 01:56:19;;;;;;;7.78;3.22;;;12.40;99.90;;;;;;4979500;28;20357;-89
2023/03/18 01:58:49;;;;;;;15.10;3.38;;;12.40;99.90;;;;;;4967774;28;20030;-88
2023/03/18 02:01:24;;;;;;;6.10;3.53;;;12.50;99.90;;;;;;4960437;28;20027;-88
2023/03/18 02:03:51;;;;;;;12.32;3.25;;;12.40;99.90;;;;;;4972472;28;20068;-87
2023/03/18 02:06:21;;;;;;;13.20;3.58;;;12.50;99.90;;;;;;4961746;28;20282;-89
2023/03/18 02:08:46;;;;;;;7.75;3.63;;;12.50;99.90;;;;;;4962862;28;20097;-88
2023/03/18 02:11:15;;;;;;;9.85;3.72;;;12.50;99.90;;;;;;4967331;28;20026;-89
2023/03/18 02:13:44;;;;;;;12.80;3.60;;;12.60;99.90;;;;;;4970372;28;20022;-89
2023/03/18 02:16:38;;;;;;;11.20;3.15;;;12.70;99.90;;;;;;4973314;28;20059;-89
2023/03/18 02:19:21;;;;;;;11.43;3.60;;;12.70;99.90;;;;;;4976199;28;20045;-88
2023/03/18 02:22:18;;;;;;;7.78;3.70;;;12.70;99.90;;;;;;4968280;28;20029;-89
2023/03/18 02:25:09;;;;;;;8.95;4.07;;;12.70;99.90;;;;;;4976927;28;20034;-87
2023/03/18 02:27:39;;;;;;;4.07;2.97;;;12.70;99.90;;;;;;4962517;28;20098;-87
2023/03/18 02:30:18;;;;;;;8.88;3.45;;;12.80;99.90;;;;;;4966417;28;20567;-87
2023/03/18 02:32:47;;;;;;;7.05;3.55;;;12.80;99.90;;;;;;4979443;28;20493;-89
2023/03/18 02:35:13;;;;;;;8.90;3.50;;;12.80;99.90;;;;;;4978018;28;20659;-88
2023/03/18 02:37:38;;;;;;;11.25;4.35;;;12.80;99.90;;;;;;4975848;28;20061;-88
2023/03/18 02:40:29;;;;;;;10.45;4.15;;;12.80;99.90;;;;;;4961229;28;20117;-86
2023/03/18 02:42:56;;;;;;;11.23;4.03;;;12.90;99.90;;;;;;4951959;28;20042;-89
2023/03/18 02:45:56;;;;;;;8.52;3.80;;;12.90;99.90;;;;;;4976875;28;20045;-88
2023/03/18 02:48:26;;;;;;;6.95;3.92;;;12.80;99.90;;;;;;4967627;28;20475;-90
2023/03/18 02:50:53;;;;;;;10.13;4.70;;;12.80;99.90;;;;;;4973799;28;20029;-88
2023/03/18 02:53:19;;;;;;;8.02;3.45;;;12.80;99.90;;;;;;4959516;28;20190;-89
2023/03/18 02:55:45;;;;;;;9.20;3.80;;;12.70;99.90;;;;;;4962684;28;20130;-90
2023/03/18 02:58:11;;;;;;;7.93;3.97;;;12.70;99.90;;;;;;4968057;28;20089;-86
2023/03/18 03:00:39;;;;;;;10.32;4.13;;;12.70;99.90;;;;;;4974631;28;20026;-89
2023/03/18 03:03:05;;;;;;;11.40;4.00;;;12.80;99.90;;;;;;4955320;28;20427;-85
2023/03/18 03:05:33;;;;;;;8.77;4.15;;;12.80;99.90;;;;;;4967313;28;20054;-90
2023/03/18 03:07:59;;;;;;;6.07;3.63;;;12.70;99.90;;;;;;4960597;28;20046;-89
2023/03/18 03:10:27;;;;;;;8.48;3.60;;;12.70;99.90;;;;;;4987685;28;20128;-88
2023/03/18 03:12:53;;;;;;;17.58;4.43;;;12.70;99.90;;;;;;4980482;28;20042;-88
2023/03/18 03:15:19;;;;;;;7.78;3.67;;;12.70;99.90;;;;;;4962393;28;20870;-89
2023/03/18 03:17:44;;;;;;;12.85;4.45;;;12.60;99.90;;;;;;4972317;28;20022;-87
2023/03/18 03:20:11;;;;;;;11.13;4.13;;;12.60;99.90;;;;;;4966129;28;20087;-89
2023/03/18 03:22:39;;;;;;;12.00;4.32;;;12.60;99.90;;;;;;4972642;28;20026;-88
2023/03/18 03:25:05;;;;;;;9.98;4.20;;;12.60;99.90;;;;;;4982587;28;20022;-84
2023/03/18 03:27:31;;;;;;;9.77;4.13;;;12.60;99.90;;;;;;4987143;28;20015;-86
2023/03/18 03:29:57;;;;;;;7.00;4.57;;;12.70;99.90;;;;;;4971154;28;20037;-87
2023/03/18 03:32:24;;;;;;;10.13;4.13;;;12.70;99.90;;;;;;4966191;28;20022;-89
2023/03/18 03:34:50;;;;;;;11.65;4.75;;;12.70;99.90;;;;;;4966592;28;20022;-88
2023/03/18 03:37:16;;;;;;;4.93;3.90;;;12.70;99.90;;;;;;4978652;28;20053;-86
2023/03/18 03:39:44;;;;;;;14.70;5.07;;;12.70;99.90;;;;;;4964406;28;20043;-90
2023/03/18 03:42:10;;;;;;;11.25;5.28;;;12.70;99.90;;;;;;4965725;28;20391;-87
2023/03/18 03:44:36;;;;;;;14.10;5.55;;;12.70;99.90;;;;;;4971321;28;20031;-89
2023/03/18 03:47:05;;;;;;;11.82;4.82;;;12.70;99.90;;;;;;4959558;28;20031;-88
2023/03/18 03:49:31;;;;;;;11.82;5.30;;;12.70;99.90;;;;;;4978473;28;20485;-86
2023/03/18 03:51:56;;;;;;;13.13;5.05;;;12.70;99.90;;;;;;4967953;28;20023;-86
2023/03/18 03:54:24;;;;;;;16.02;5.00;;;12.70;99.90;;;;;;4967764;28;20057;-88
2023/03/18 03:56:52;;;;;;;9.73;4.85;;;12.80;99.90;;;;;;4966753;28;20026;-90
2023/03/18 03:59:18;;;;;;;9.88;5.25;;;12.80;99.90;;;;;;4962590;28;20811;-89
2023/03/18 04:01:46;;;;;;;15.70;5.93;;;12.90;99.90;;;;;;4975467;28;20029;-89
2023/03/18 04:04:12;;;;;;;12.25;5.32;;;12.90;99.90;;;;;;4978740;28;20027;-88
2023/03/18 04:06:37;;;;;;;10.75;5.63;;;12.90;99.90;;;;;;4967204;28;20712;-87
2023/03/18 04:09:04;;;;;;;8.73;5.10;;;13.00;99.90;;;;;;4967191;28;20022;-88
2023/03/18 04:11:30;;;;;;;12.45;5.82;;;12.90;99.90;;;;;;4978547;28;20043;-89
2023/03/18 04:13:55;;;;;;;11.35;5.72;;;12.90;99.90;;;;;;4979185;28;20026;-87
2023/03/18 04:16:22;;;;;;;10.40;5.57;;;12.90;99.90;;;;;;4966710;28;20033;-89
2023/03/18 04:18:49;;;;;;;20.00;6.40;;;12.90;99.90;;;;;;4957157;28;20038;-90
2023/03/18 04:21:15;;;;;;;15.55;6.32;;;12.80;99.90;;;;;;4966346;28;20022;-89
2023/03/18 04:23:41;;;;;;;12.07;6.45;;;12.70;99.90;;;;;;4963631;28;20073;-87
2023/03/18 04:26:07;;;;;;;17.65;6.72;;;12.70;99.90;;;;;;4963004;28;20027;-90
2023/03/18 04:28:33;;;;;;;12.63;6.75;;;12.70;99.90;;;;;;4966328;28;20069;-88
2023/03/18 04:30:59;;;;;;;12.57;6.07;;;12.70;99.90;;;;;;4974054;28;20657;-89
2023/03/18 04:33:26;;;;;;;18.08;7.03;;;12.70;99.90;;;;;;4960423;28;20072;-88
2023/03/18 04:35:52;;;;;;;18.70;7.75;;;12.70;99.90;;;;;;4967868;28;20034;-91
2023/03/18 04:38:18;;;;;;;19.35;7.50;;;12.70;99.90;;;;;;4970639;28;20030;-89
2023/03/18 04:40:44;;;;;;;18.92;6.45;;;12.80;99.90;;;;;;4969209;28;20161;-89
2023/03/18 04:43:10;;;;;;;11.80;7.55;;;12.70;99.90;;;;;;4984735;28;20494;-87
2023/03/18 04:45:35;;;;;;;14.93;7.57;;;12.70;99.90;;;;;;4978261;28;20017;-90
2023/03/18 04:48:01;;;;;;;17.50;7.22;;;12.70;99.90;;;;;;4977882;28;20583;-89
2023/03/18 04:50:28;;;;;;;17.42;7.93;;;12.60;99.90;;;;;;4969744;28;20438;-90
2023/03/18 04:52:53;;;;;;;16.42;7.80;;;12.60;99.90;;;;;;4969747;28;20034;-89
2023/03/18 04:55:20;;;;;;;15.43;7.35;;;12.60;99.90;;;;;;4987184;28;20034;-88
2023/03/18 04:57:47;;;;;;;11.88;7.63;;;12.60;99.90;;;;;;4995975;28;20026;-86
2023/03/18 05:00:16;;;;;;;18.25;7.55;;;12.60;99.90;;;;;;4995121;28;20023;-89
2023/03/18 05:02:42;;;;;;;18.50;7.88;;;12.70;99.90;;;;;;5000011;28;20027;-87
2023/03/18 05:05:09;;;;;;;17.98;7.57;;;12.70;99.90;;;;;;4977912;28;20018;-87
2023/03/18 05:07:35;;;;;;;19.33;8.52;;;12.70;99.90;;;;;;4995800;28;20048;-87
2023/03/18 05:10:02;;;;;;;14.45;7.88;;;12.60;99.90;;;;;;4991837;28;20019;-89
2023/03/18 05:12:28;;;;;;;19.58;8.43;;;12.50;99.90;;;;;;4981879;28;20035;-88
2023/03/18 05:14:54;;;;;;;21.50;8.75;;;12.50;99.90;;;;;;4983825;28;20022;-88
2023/03/18 05:17:20;;;;;;;19.88;9.27;;;12.40;99.90;;;;;;4992568;28;20044;-88
2023/03/18 05:19:50;;;;;;;18.88;9.05;;;12.40;99.90;;;;;;4973194;28;20065;-90
2023/03/18 05:22:20;;;;;;;17.88;8.27;;;12.30;99.90;;;;;;4962479;28;20082;-90
2023/03/18 05:24:47;;;;;;;17.80;8.43;;;12.40;99.90;;;;;;4977696;28;20029;-89
2023/03/18 05:27:15;;;;;;;17.48;8.80;;;12.30;99.90;;;;;;4966159;28;20078;-90
2023/03/18 05:29:41;;;;;;;17.85;9.32;;;12.30;99.90;;;;;;4979120;28;20430;-89
2023/03/18 05:32:08;;;;;;;15.52;8.68;;;12.30;99.90;;;;;;4969515;28;20033;-90
2023/03/18 05:34:36;;;;;;;16.92;8.40;;;12.40;99.90;;;;;;4977045;28;20034;-89
2023/03/18 05:37:08;;;;;;;17.02;8.05;;;12.40;99.90;;;;;;4968170;28;20026;-87
2023/03/18 05:39:33;;;;;;;19.48;8.05;;;12.40;99.90;;;;;;4968256;28;20132;-89
2023/03/18 05:41:59;;;;;;;18.83;7.57;;;12.40;99.90;;;;;;4976708;28;20023;-90
2023/03/18 05:44:26;;;;;;;16.40;8.05;;;12.40;99.90;;;;;;4960488;28;20511;-89
2023/03/18 05:46:54;;;;;;;15.57;7.72;;;12.50;99.90;;;;;;4962919;28;20023;-91
2023/03/18 05:49:22;;;;;;;15.95;7.25;;;12.50;99.90;;;;;;4968990;28;20038;-90
2023/03/18 05:51:49;;;;;;;15.77;7.50;;;12.40;99.90;;;;;;4968867;28;20026;-90
2023/03/18 05:54:15;;;;;;;17.30;7.82;;;12.40;99.90;;;;;;4965438;28;20027;-90
2023/03/18 05:56:46;;;;;;;17.50;7.22;;;12.50;99.90;;;;;;4967821;28;20064;-89
2023/03/18 05:59:13;;;;;;;16.65;7.82;;;12.40;99.90;;;;;;4971150;28;20463;-90
2023/03/18 06:01:40;;;;;;;16.10;7.60;;;12.30;99.90;;;;;;4978640;28;20459;-88
2023/03/18 06:04:07;;;;;;;17.40;8.15;;;12.30;99.90;;;;;;4976494;28;20019;-88
2023/03/18 06:06:36;;;;;;;13.88;8.48;;;12.30;99.90;;;;;;4963000;28;20023;-89
2023/03/18 06:09:02;;;;;;;19.35;9.27;;;12.30;99.90;;;;;;4975588;28;20031;-90
2023/03/18 06:11:28;;;;;;;13.90;9.00;;;12.40;99.90;;;;;;4967214;28;20026;-82
2023/03/18 06:13:54;;;;;;;16.10;9.25;;;12.40;99.90;;;;;;4964079;28;20026;-82
2023/03/18 06:16:22;;;;;;;23.35;9.40;;;12.50;99.90;;;;;;4976478;28;20022;-81
2023/03/18 06:18:48;;;;;;;19.55;10.05;;;12.50;99.90;;;;;;4974713;28;20057;-83
2023/03/18 06:21:16;;;;;;;24.38;10.98;;;12.50;99.90;;;;;;4964360;28;20027;-82
2023/03/18 06:23:43;;;;;;;22.08;10.68;;;12.50;99.90;;;;;;4973770;28;20030;-81
2023/03/18 06:26:09;;;;;;;27.55;12.27;;;12.50;99.90;;;;;;4959309;28;20390;-82
2023/03/18 06:28:35;;;;;;;20.48;10.50;;;12.60;99.90;;;;;;4957612;28;20033;-82
2023/03/18 06:31:01;;;;;;;21.48;11.60;;;12.60;99.90;;;;;;4956360;28;20038;-82
2023/03/18 06:35:56;;;;;;;24.83;12.00;;;12.70;99.90;;;;;;5000538;28;20107;-81
2023/03/18 06:38:22;;;;;;;22.13;12.40;;;12.70;99.90;;;;;;5002917;28;20038;-82
2023/03/18 06:40:48;;;;;;;23.17;12.32;;;12.70;99.90;;;;;;4977969;28;20026;-81
2023/03/18 06:43:14;;;;;;;28.02;12.73;;;12.70;99.90;;;;;;4983306;28;20022;-81
2023/03/18 06:45:40;;;;;;;21.00;12.30;;;12.60;99.90;;;;;;4987164;28;20095;-81
2023/03/18 06:48:09;;;;;;;25.80;13.65;;;12.60;99.90;;;;;;5003032;28;20034;-81
2023/03/18 06:50:35;;;;;;;28.60;13.52;;;12.50;99.90;;;;;;4980099;28;20530;-82
2023/03/18 06:53:01;;;;;;;23.65;13.20;;;12.50;99.90;;;;;;4999935;28;20076;-82
2023/03/18 06:55:27;;;;;;;25.30;12.93;;;12.60;99.90;;;;;;4980271;28;20041;-81
2023/03/18 06:57:53;;;;;;;28.42;13.80;;;12.50;99.90;;;;;;4981613;28;20533;-80
2023/03/18 07:00:21;;;;;;;23.13;13.00;;;12.50;99.90;;;;;;5000768;28;20291;-82
2023/03/18 07:02:47;;;;;;;22.45;12.60;;;12.60;99.90;;;;;;5000844;28;20636;-82
2023/03/18 07:05:15;;;;;;;22.65;12.48;;;12.60;99.90;;;;;;4980778;28;20087;-82
2023/03/18 07:07:42;;;;;;;26.13;12.90;;;12.60;99.90;;;;;;4999901;28;20030;-83
2023/03/18 07:10:14;;;;;;;25.67;12.73;;;12.60;99.90;;;;;;4982165;28;20088;-85
2023/03/18 07:12:40;;;;;;;24.00;13.33;;;12.60;99.90;;;;;;4999015;28;20073;-82
2023/03/18 07:15:10;;;;;;;23.75;13.82;;;12.60;99.90;;;;;;5003040;28;20791;-83
2023/03/18 07:17:36;;;;;;;24.70;14.27;;;12.70;99.90;;;;;;4990750;28;20057;-83
2023/03/18 07:20:02;;;;;;;29.42;13.25;;;12.90;99.90;;;;;;5013738;28;20045;-82
2023/03/18 07:22:30;;;;;;;21.67;12.77;;;13.10;99.90;;;;;;5000983;28;20129;-83
2023/03/18 07:24:55;;;;;;;23.17;13.25;;;13.20;99.90;;;;;;4985269;28;20118;-82
2023/03/18 07:27:23;;;;;;;25.63;13.27;;;13.40;99.90;;;;;;4980856;28;20091;-82
2023/03/18 07:29:49;;;;;;;23.33;13.27;;;13.50;99.90;;;;;;4983912;28;20061;-83
2023/03/18 07:32:15;;;;;;;25.00;13.63;;;13.50;99.90;;;;;;4999185;28;20106;-82
2023/03/18 07:34:41;;;;;;;20.52;12.05;;;13.70;99.90;;;;;;4986587;28;20038;-89
2023/03/18 07:37:07;;;;;;;26.98;12.43;;;13.70;99.90;;;;;;5000420;28;20042;-82
2023/03/18 07:39:33;;;;;;;25.30;12.45;;;13.80;99.90;;;;;;5000128;28;20064;-81
2023/03/18 07:41:59;;;;;;;27.05;12.15;;;13.80;99.90;;;;;;4991862;28;20026;-82
2023/03/18 07:44:25;;;;;;;19.80;10.43;;;13.80;99.90;;;;;;4979966;28;20029;-83
2023/03/18 07:46:51;;;;;;;20.90;12.02;;;13.70;99.90;;;;;;5001166;28;20022;-82
2023/03/18 07:49:16;;;;;;;18.88;10.27;;;13.80;99.90;;;;;;4997431;28;20338;-83
2023/03/18 07:51:42;;;;;;;20.92;10.55;;;13.80;99.90;;;;;;5000766;28;20049;-83
2023/03/18 07:54:08;;;;;;;17.80;10.50;;;13.90;99.90;;;;;;4984713;28;20107;-84
2023/03/18 07:56:36;;;;;;;15.63;9.55;;;13.90;99.90;;;;;;4984377;28;20397;-85
2023/03/18 07:59:01;;;;;;;18.00;10.50;;;14.00;99.90;;;;;;5000695;28;20045;-84
2023/03/18 08:01:29;;;;;;;18.77;10.65;;;14.10;99.90;;;;;;4960279;28;20548;-83
2023/03/18 08:03:54;;;;;;;16.13;10.30;;;14.10;99.90;;;;;;4961997;28;20033;-83
2023/03/18 08:06:20;;;;;;;17.38;9.88;;;14.20;99.90;;;;;;4980525;28;20050;-89
2023/03/18 08:08:46;;;;;;;16.23;10.57;;;14.30;99.90;;;;;;4984452;28;20038;-86
2023/03/18 08:11:11;;;;;;;19.13;10.32;;;14.40;99.90;;;;;;4965759;28;20100;-83
2023/03/18 08:13:38;;;;;;;20.05;10.27;;;14.30;99.90;;;;;;5128692;23;20231;-83
2023/03/18 08:16:04;;;;;;;18.75;9.80;;;14.30;99.90;;;;;;4901354;29;20023;-83
2023/03/18 08:18:30;;;;;;;344.73;130.88;;;14.40;99.90;;;;;;4904310;29;20075;-80
2023/03/18 08:20:55;;;;;;;19.30;11.65;;;14.50;99.90;;;;;;4913580;29;20110;-81
2023/03/18 08:23:22;;;;;;;15.20;8.80;;;14.60;99.90;;;;;;4913917;29;20043;-88
2023/03/18 08:25:49;;;;;;;17.05;8.93;;;14.50;99.90;;;;;;4913600;29;20037;-82
2023/03/18 08:28:16;;;;;;;14.30;8.95;;;14.80;99.90;;;;;;4897159;29;20050;-84
2023/03/18 08:30:42;;;;;;;17.40;9.70;;;15.10;99.90;;;;;;4915775;29;20036;-83
2023/03/18 08:33:08;;;;;;;12.70;8.35;;;15.20;99.90;;;;;;4915103;29;20039;-89
2023/03/18 08:35:34;;;;;;;14.70;9.20;;;15.30;99.90;;;;;;4925525;29;20023;-87
2023/03/18 08:38:03;;;;;;;19.30;9.07;;;15.50;99.90;;;;;;4907446;29;20039;-89
2023/03/18 08:40:31;;;;;;;13.35;9.15;;;15.50;99.90;;;;;;4905391;29;20118;-88
2023/03/18 08:42:59;;;;;;;14.90;8.57;;;15.60;99.90;;;;;;4919994;29;20028;-89
2023/03/18 08:45:26;;;;;;;14.48;8.38;;;15.70;99.90;;;;;;4919990;29;20023;-88
2023/03/18 08:47:52;;;;;;;11.73;7.60;;;16.00;99.90;;;;;;4920501;29;20026;-89
2023/03/18 08:50:18;;;;;;;10.65;7.80;;;15.90;99.90;;;;;;4917992;29;20037;-88
2023/03/18 08:52:44;;;;;;;1193.90;411.58;;;16.10;99.90;;;;;;4917038;29;20030;-88
2023/03/18 08:55:10;;;;;;;13.20;8.68;;;16.40;99.90;;;;;;4902632;29;20415;-87
2023/03/18 08:57:36;;;;;;;12.52;6.88;;;16.50;99.90;;;;;;4903230;29;20046;-89
2023/03/18 09:00:04;;;;;;;8.05;6.18;;;16.80;99.90;;;;;;4920431;29;20040;-87
2023/03/18 09:02:30;;;;;;;9.45;6.47;;;16.70;99.90;;;;;;4918143;29;20455;-89
2023/03/18 09:04:55;;;;;;;8.50;5.85;;;16.60;99.90;;;;;;4917132;29;20108;-88
2023/03/18 09:07:23;;;;;;;10.80;6.13;;;16.70;99.90;;;;;;4916392;29;20440;-88
2023/03/18 09:09:49;;;;;;;12.25;6.13;;;16.60;99.90;;;;;;4921156;29;20095;-85
2023/03/18 09:12:15;;;;;;;11.65;6.10;;;16.80;99.90;;;;;;4896573;29;20025;-85
2023/03/18 09:14:42;;;;;;;9.75;6.40;;;16.90;99.90;;;;;;4917292;29;20496;-89
2023/03/18 09:17:08;;;;;;;9.27;5.60;;;17.10;99.90;;;;;;4913682;29;20031;-87
2023/03/18 09:19:34;;;;;;;10.90;5.55;;;17.40;99.90;;;;;;4919029;29;20091;-83
2023/03/18 09:21:59;;;;;;;7.40;5.55;;;17.80;99.90;;;;;;4901791;29;20473;-84
2023/03/18 09:24:25;;;;;;;10.25;5.68;;;17.60;99.90;;;;;;4920265;29;20032;-84
2023/03/18 09:26:50;;;;;;;5.28;4.10;;;17.30;99.90;;;;;;4904351;29;20083;-83
2023/03/18 09:29:16;;;;;;;5.35;4.35;;;17.00;99.90;;;;;;4920519;29;20471;-85
2023/03/18 09:31:42;;;;;;;6.30;4.40;;;16.80;99.90;;;;;;4918887;29;20103;-84
2023/03/18 09:34:12;;;;;;;6.43;4.03;;;17.10;99.90;;;;;;4931198;29;20036;-84
2023/03/18 09:36:38;;;;;;;7.45;3.97;;;17.10;99.90;;;;;;4907523;29;20494;-83
2023/03/18 09:39:05;;;;;;;6.85;3.50;;;17.10;99.90;;;;;;4886876;29;20062;-84
2023/03/18 09:41:52;;;;;;;6.78;3.60;;;16.90;99.90;;;;;;4902082;29;20028;-84
2023/03/18 09:44:32;;;;;;;4.85;3.65;;;16.80;99.90;;;;;;4905028;29;20024;-81
2023/03/18 09:47:35;;;;;;;5.60;3.78;;;16.60;99.90;;;;;;4894804;29;20028;-81
2023/03/18 09:50:20;;;;;;;5.97;3.47;;;16.60;99.90;;;;;;4899033;29;20185;-81
2023/03/18 09:52:59;;;;;;;3.78;3.05;;;17.00;99.90;;;;;;4883511;29;20047;-82
2023/03/18 09:55:38;;;;;;;4.72;3.13;;;17.10;99.90;;;;;;4885877;29;20468;-82
2023/03/18 09:58:13;;;;;;;7.05;3.45;;;17.00;99.90;;;;;;4899650;29;20039;-82
2023/03/18 10:00:40;;;;;;;4.13;3.40;;;16.80;99.90;;;;;;4882537;29;20473;-82
2023/03/18 10:03:16;;;;;;;6.40;3.85;;;17.10;99.90;;;;;;4896902;29;20028;-82
2023/03/18 10:05:42;;;;;;;5.32;4.03;;;17.10;99.90;;;;;;4879126;29;20054;-82
2023/03/18 10:08:43;;;;;;;4.43;3.55;;;16.90;99.90;;;;;;4894028;29;20358;-80
2023/03/18 10:11:31;;;;;;;7.60;3.88;;;16.80;99.90;;;;;;4867694;29;20044;-82
2023/03/18 10:13:56;;;;;;;8.38;4.43;;;16.80;99.90;;;;;;4883750;29;20134;-81
2023/03/18 10:16:28;;;;;;;6.20;3.65;;;16.80;99.90;;;;;;4894772;29;20095;-81
2023/03/18 10:18:54;;;;;;;555.90;226.52;;;16.80;99.90;;;;;;4899483;29;20042;-84
2023/03/18 10:21:39;;;;;;;8.48;5.07;;;17.20;99.90;;;;;;4881594;29;20028;-80
2023/03/18 10:24:13;;;;;;;5.85;3.70;;;17.90;99.90;;;;;;4878096;29;20665;-83
2023/03/18 10:26:49;;;;;;;8.70;3.72;;;18.30;99.90;;;;;;4897024;29;20122;-82
2023/03/18 10:29:28;;;;;;;5.28;3.08;;;18.30;99.90;;;;;;4883485;29;20036;-81
2023/03/18 10:32:18;;;;;;;6.43;3.20;;;19.10;99.90;;;;;;4895050;29;20035;-83
2023/03/18 10:35:08;;;;;;;5.82;3.03;;;19.60;99.90;;;;;;4894385;29;20544;-81
2023/03/18 10:37:34;;;;;;;3.10;2.80;;;19.60;99.90;;;;;;4898344;29;20423;-81
2023/03/18 10:40:00;;;;;;;2.63;2.42;;;19.90;99.90;;;;;;4896562;29;20036;-83
2023/03/18 10:42:30;;;;;;;2.70;2.50;;;20.50;99.90;;;;;;4899358;29;20111;-82
2023/03/18 10:45:12;;;;;;;12.80;2.92;;;20.70;99.90;;;;;;4894603;29;20046;-82
2023/03/18 10:47:43;;;;;;;9.97;2.63;;;20.90;99.90;;;;;;4899457;29;20032;-83
2023/03/18 10:50:17;;;;;;;5.80;2.42;;;21.30;99.90;;;;;;4899678;29;20535;-83
2023/03/18 10:52:54;;;;;;;3.38;2.40;;;21.40;99.40;;;;;;4899826;29;21106;-82
2023/03/18 10:55:26;;;;;;;4.07;2.67;;;21.50;99.00;;;;;;4880171;29;20036;-83
2023/03/18 10:57:52;;;;;;;4.63;2.40;;;21.20;98.70;;;;;;4902226;29;20030;-81
2023/03/18 11:00:31;;;;;;;4.95;2.92;;;20.70;98.90;;;;;;4897540;29;20412;-82
2023/03/18 11:03:00;;;;;;;3.97;2.70;;;20.80;99.30;;;;;;4883763;29;20059;-82
2023/03/18 11:05:34;;;;;;;3.00;2.70;;;21.20;99.80;;;;;;4896865;29;20043;-84
2023/03/18 11:08:27;;;;;;;3.17;2.08;;;21.20;98.50;;;;;;4899534;29;20028;-82
2023/03/18 11:10:53;;;;;;;2.78;2.42;;;21.20;97.40;;;;;;4897695;29;20103;-84
2023/03/18 11:13:21;;;;;;;4.38;2.67;;;21.50;98.70;;;;;;4881682;29;20060;-84
2023/03/18 11:15:55;;;;;;;3.30;2.40;;;22.10;97.00;;;;;;4880822;29;20083;-82
2023/03/18 11:18:26;;;;;;;2.17;1.77;;;22.10;96.20;;;;;;4897006;29;20117;-83
2023/03/18 11:21:03;;;;;;;5.95;2.15;;;22.50;94.70;;;;;;4883048;29;20471;-82
2023/03/18 11:23:54;;;;;;;4.18;2.15;;;22.30;93.50;;;;;;4895951;29;20041;-83
2023/03/18 11:26:22;;;;;;;3.90;2.50;;;22.20;93.20;;;;;;4897555;29;20028;-83
2023/03/18 11:28:48;;;;;;;3.28;2.20;;;21.60;94.30;;;;;;4879733;29;20047;-83
2023/03/18 11:31:19;;;;;;;2.38;2.17;;;21.00;95.10;;;;;;4881690;29;20024;-83
2023/03/18 11:33:47;;;;;;;3.42;2.30;;;21.30;95.00;;;;;;4898647;29;20638;-82
2023/03/18 11:36:18;;;;;;;5.90;2.13;;;21.90;93.90;;;;;;4879883;29;20096;-85
2023/03/18 11:39:05;;;;;;;3.25;1.92;;;22.20;92.80;;;;;;4882857;29;20135;-86
2023/03/18 11:41:30;;;;;;;3.72;2.35;;;22.00;93.60;;;;;;4901683;29;20120;-79
2023/03/18 11:44:02;;;;;;;3.22;2.55;;;22.40;93.60;;;;;;4883608;29;20143;-80
2023/03/18 11:46:37;;;;;;;4.00;2.55;;;22.60;93.20;;;;;;4899439;29;20032;-81
2023/03/18 11:49:08;;;;;;;3.80;2.47;;;23.00;92.60;;;;;;4899493;29;20127;-83
2023/03/18 11:51:39;;;;;;;3.22;2.45;;;22.90;91.50;;;;;;4881566;29;20024;-82
2023/03/18 11:54:24;;;;;;;1.80;1.67;;;22.70;92.00;;;;;;4880467;29;20478;-81
2023/03/18 11:57:01;;;;;;;2.60;1.70;;;22.30;90.40;;;;;;4896171;29;20044;-81
2023/03/18 11:59:52;;;;;;;5.18;1.90;;;21.80;91.80;;;;;;4899967;29;20552;-80
2023/03/18 12:02:41;;;;;;;3.47;2.30;;;21.70;91.80;;;;;;4900018;29;20028;-79
2023/03/18 12:05:35;;;;;;;3.45;2.00;;;21.20;92.50;;;;;;4900888;29;20653;-80
2023/03/18 12:08:38;;;;;;;5.38;2.10;;;21.60;92.80;;;;;;4898188;29;20038;-80
2023/03/18 12:11:06;;;;;;;3.22;2.20;;;22.20;91.10;;;;;;4917577;29;20052;-80
2023/03/18 12:14:07;;;;;;;4.07;2.17;;;22.10;91.40;;;;;;4921555;29;20036;-81
2023/03/18 12:16:35;;;;;;;2.60;2.30;;;21.40;91.00;;;;;;4902438;29;20076;-79
2023/03/18 12:19:38;;;;;;;4.25;2.15;;;21.00;92.30;;;;;;4917706;29;20851;-78
2023/03/18 12:22:22;;;;;;;3.15;2.20;;;21.10;92.70;;;;;;4918901;29;20043;-79
2023/03/18 12:25:29;;;;;;;3.00;2.15;;;21.50;92.50;;;;;;4912721;29;20055;-79
2023/03/18 12:28:10;;;;;;;5.93;2.10;;;21.70;91.40;;;;;;4914469;29;20400;-79
2023/03/18 12:30:44;;;;;;;2.53;2.22;;;22.00;91.00;;;;;;4916515;29;20562;-78
2023/03/18 12:33:27;;;;;;;4.68;2.80;;;22.20;90.60;;;;;;4900880;29;20471;-78
2023/03/18 12:36:15;;;;;;;3.50;1.80;;;22.50;90.90;;;;;;4913244;29;20444;-79
2023/03/18 12:39:08;;;;;;;3.15;2.30;;;22.90;90.10;;;;;;4914535;29;20070;-78
2023/03/18 12:42:00;;;;;;;;;;;23.30;88.10;;;;;;4906055;29;20051;-78
2023/03/18 12:44:46;;;;;;;5.22;2.42;;;23.10;86.60;;;;;;4914322;29;20001;-78
2023/03/18 12:47:37;;;;;;;3.00;2.50;;;23.40;86.60;;;;;;4914052;29;20123;-80
2023/03/18 12:50:15;;;;;;;3.42;2.25;;;23.60;86.80;;;;;;4915135;29;20047;-79
2023/03/18 12:52:54;;;;;;;3.97;2.38;;;22.80;86.50;;;;;;4914158;29;20130;-80
2023/03/18 12:55:28;;;;;;;3.33;2.28;;;22.10;89.50;;;;;;4912735;29;20062;-81
2023/03/18 12:58:06;;;;;;;4.30;2.53;;;21.70;90.30;;;;;;4915983;29;20028;-80